Time,TemperatureF,DewpointF,PressureIn,WindDirection,WindDirectionDegrees,WindSpeedMPH,WindSpeedGustMPH,Humidity,HourlyPrecipIn,Conditions,Clouds,dailyrainin,SolarRadiationWatts/m^2,SoftwareType,DateUTC
2013-11-08 00:03:00,43.0,30.0,-100.00,SSW,204,3.0,6.0,60,0.00,,,0.36,0.000000,,2013-11-08 05:03:00,
2013-11-08 00:44:00,40.0,30.0,-100.00,SW,232,2.0,4.0,66,0.00,,,0.36,0.000000,,2013-11-08 05:44:00,
2013-11-08 00:54:00,40.0,30.0,-100.00,SW,232,2.0,4.0,66,0.00,,,0.36,0.000000,,2013-11-08 05:54:00,
2013-11-08 01:04:00,40.0,30.0,-100.00,SW,232,2.0,4.0,66,0.00,,,0.36,0.000000,,2013-11-08 06:04:00,
2013-11-08 01:42:00,38.0,29.0,-100.00,SW,219,2.0,4.0,71,0.00,,,0.36,0.000000,,2013-11-08 06:42:00,
2013-11-08 01:53:00,38.0,29.0,-100.00,SW,219,2.0,4.0,71,0.00,,,0.36,0.000000,,2013-11-08 06:53:00,
2013-11-08 02:02:00,38.0,29.0,-100.00,SW,219,2.0,4.0,71,0.00,,,0.36,0.000000,,2013-11-08 07:02:00,
2013-11-08 02:42:00,37.0,28.0,-100.00,WSW,241,2.0,5.0,71,0.00,,,0.36,0.000000,,2013-11-08 07:42:00,
2013-11-08 02:52:00,37.0,28.0,-100.00,WSW,241,2.0,5.0,71,0.00,,,0.36,0.000000,,2013-11-08 07:52:00,
2013-11-08 03:02:00,37.0,28.0,-100.00,WSW,241,2.0,5.0,71,0.00,,,0.36,0.000000,,2013-11-08 08:02:00,
2013-11-08 03:42:00,34.0,30.0,-100.00,SSW,200,1.0,3.0,85,0.00,,,0.36,0.000000,,2013-11-08 08:42:00,
2013-11-08 03:52:00,34.0,30.0,-100.00,SSW,200,1.0,3.0,85,0.00,,,0.36,0.000000,,2013-11-08 08:52:00,
2013-11-08 04:03:00,34.0,30.0,-100.00,SSW,200,1.0,3.0,85,0.00,,,0.36,0.000000,,2013-11-08 09:03:00,
2013-11-08 04:43:00,32.0,29.0,-100.00,WSW,237,2.0,3.0,88,0.00,,,0.29,0.000000,,2013-11-08 09:43:00,
2013-11-08 04:54:00,32.0,29.0,-100.00,WSW,237,2.0,3.0,88,0.00,,,0.29,0.000000,,2013-11-08 09:54:00,
2013-11-08 05:03:00,32.0,29.0,-100.00,WSW,237,2.0,3.0,88,0.00,,,0.29,0.000000,,2013-11-08 10:03:00,
2013-11-08 05:43:00,32.0,29.0,-100.00,SW,215,1.0,3.0,90,0.00,,,0.22,0.000000,,2013-11-08 10:43:00,
2013-11-08 05:53:00,32.0,29.0,-100.00,SW,215,1.0,3.0,90,0.00,,,0.22,0.000000,,2013-11-08 10:53:00,
2013-11-08 06:02:00,32.0,29.0,-100.00,SW,215,1.0,3.0,90,0.00,,,0.22,0.000000,,2013-11-08 11:02:00,
2013-11-08 06:42:00,31.0,29.0,-100.00,WSW,240,2.0,2.0,92,0.00,,,0.17,0.000000,,2013-11-08 11:42:00,
2013-11-08 06:52:00,31.0,29.0,-100.00,WSW,240,2.0,2.0,92,0.00,,,0.17,0.000000,,2013-11-08 11:52:00,
2013-11-08 07:02:00,31.0,29.0,-100.00,WSW,240,2.0,2.0,92,0.00,,,0.17,0.000000,,2013-11-08 12:02:00,
2013-11-08 07:42:00,32.0,28.0,-100.00,WSW,251,2.0,4.0,84,0.00,,,0.10,1.000000,,2013-11-08 12:42:00,
2013-11-08 07:52:00,32.0,28.0,-100.00,WSW,251,2.0,4.0,84,0.00,,,0.10,1.000000,,2013-11-08 12:52:00,
2013-11-08 08:01:00,32.0,28.0,-100.00,WSW,251,2.0,4.0,84,0.00,,,0.10,1.000000,,2013-11-08 13:01:00,
2013-11-08 08:42:00,38.0,31.0,-100.00,South,185,2.0,4.0,76,0.00,,,0.04,71.000000,,2013-11-08 13:42:00,
2013-11-08 08:52:00,38.0,31.0,-100.00,South,185,2.0,4.0,76,0.00,,,0.04,71.000000,,2013-11-08 13:52:00,
2013-11-08 09:02:00,38.0,31.0,-100.00,South,185,2.0,4.0,76,0.00,,,0.04,71.000000,,2013-11-08 14:02:00,
2013-11-08 10:44:00,48.0,24.0,-100.00,ENE,77,4.0,9.0,38,0.00,,,0.00,401.000000,,2013-11-08 15:44:00,
2013-11-08 10:53:00,48.0,24.0,-100.00,ENE,77,4.0,9.0,38,0.00,,,0.00,401.000000,,2013-11-08 15:53:00,
2013-11-08 11:03:00,48.0,24.0,-100.00,ENE,77,4.0,9.0,38,0.00,,,0.00,401.000000,,2013-11-08 16:03:00,
2013-11-08 11:42:00,49.0,22.0,-100.00,ENE,67,5.0,10.0,34,0.00,,,0.00,521.000000,,2013-11-08 16:42:00,
2013-11-08 11:53:00,49.0,22.0,-100.00,ENE,67,5.0,10.0,34,0.00,,,0.00,521.000000,,2013-11-08 16:53:00,
2013-11-08 12:02:00,49.0,22.0,-100.00,ENE,67,5.0,10.0,34,0.00,,,0.00,521.000000,,2013-11-08 17:02:00,
2013-11-08 12:43:00,50.0,21.0,-100.00,West,274,3.0,9.0,32,0.00,,,0.00,580.000000,,2013-11-08 17:43:00,
2013-11-08 12:53:00,50.0,21.0,-100.00,West,274,3.0,9.0,32,0.00,,,0.00,580.000000,,2013-11-08 17:53:00,
2013-11-08 13:02:00,50.0,21.0,-100.00,West,274,3.0,9.0,32,0.00,,,0.00,580.000000,,2013-11-08 18:02:00,
2013-11-08 13:43:00,53.0,23.0,-100.00,NE,48,3.0,11.0,31,0.00,,,0.00,564.000000,,2013-11-08 18:43:00,
2013-11-08 13:53:00,53.0,23.0,-100.00,NE,48,3.0,11.0,31,0.00,,,0.00,564.000000,,2013-11-08 18:53:00,
2013-11-08 14:02:00,53.0,23.0,-100.00,NE,48,3.0,11.0,31,0.00,,,0.00,564.000000,,2013-11-08 19:02:00,
2013-11-08 14:42:00,51.0,21.0,-100.00,East,99,3.0,6.0,30,0.00,,,0.00,371.000000,,2013-11-08 19:42:00,
2013-11-08 14:53:00,51.0,21.0,-100.00,East,99,3.0,6.0,30,0.00,,,0.00,371.000000,,2013-11-08 19:53:00,
2013-11-08 15:02:00,51.0,21.0,-100.00,East,99,3.0,6.0,30,0.00,,,0.00,371.000000,,2013-11-08 20:02:00,
2013-11-08 15:42:00,52.0,21.0,-100.00,NE,50,3.0,7.0,29,0.00,,,0.00,189.000000,,2013-11-08 20:42:00,
2013-11-08 15:53:00,52.0,21.0,-100.00,NE,50,3.0,7.0,29,0.00,,,0.00,189.000000,,2013-11-08 20:53:00,
2013-11-08 16:02:00,52.0,21.0,-100.00,NE,50,3.0,7.0,29,0.00,,,0.00,189.000000,,2013-11-08 21:02:00,
2013-11-08 16:45:00,54.0,21.0,-100.00,SE,135,3.0,6.0,27,0.00,,,0.00,149.000000,,2013-11-08 21:45:00,
2013-11-08 16:54:00,54.0,21.0,-100.00,SE,135,3.0,6.0,27,0.00,,,0.00,149.000000,,2013-11-08 21:54:00,
2013-11-08 17:04:00,54.0,21.0,-100.00,SE,135,3.0,6.0,27,0.00,,,0.00,149.000000,,2013-11-08 22:04:00,
2013-11-08 17:43:00,50.0,23.0,-100.00,NW,304,1.0,4.0,34,0.00,,,0.00,52.000000,,2013-11-08 22:43:00,
2013-11-08 17:53:00,50.0,23.0,-100.00,NW,304,1.0,4.0,34,0.00,,,0.00,52.000000,,2013-11-08 22:53:00,
2013-11-08 18:03:00,50.0,23.0,-100.00,NW,304,1.0,4.0,34,0.00,,,0.00,52.000000,,2013-11-08 23:03:00,
2013-11-08 18:43:00,45.0,25.0,-100.00,WSW,246,2.0,2.0,46,0.00,,,0.00,4.000000,,2013-11-08 23:43:00,
2013-11-08 18:53:00,45.0,25.0,-100.00,WSW,246,2.0,2.0,46,0.00,,,0.00,4.000000,,2013-11-08 23:53:00,
2013-11-08 19:02:00,45.0,25.0,-100.00,WSW,246,2.0,2.0,46,0.00,,,0.00,4.000000,,2013-11-09 00:02:00,
2013-11-08 19:42:00,41.0,28.0,-100.00,South,189,1.0,2.0,59,0.00,,,0.00,0.000000,,2013-11-09 00:42:00,
2013-11-08 19:52:00,41.0,28.0,-100.00,South,189,1.0,2.0,59,0.00,,,0.00,0.000000,,2013-11-09 00:52:00,
2013-11-08 20:02:00,41.0,28.0,-100.00,South,189,1.0,2.0,59,0.00,,,0.00,0.000000,,2013-11-09 01:02:00,
2013-11-08 20:42:00,38.0,28.0,-100.00,SW,217,1.0,3.0,67,0.00,,,0.00,0.000000,,2013-11-09 01:42:00,
2013-11-08 20:52:00,38.0,28.0,-100.00,SW,217,1.0,3.0,67,0.00,,,0.00,0.000000,,2013-11-09 01:52:00,
2013-11-08 21:02:00,38.0,28.0,-100.00,SW,217,1.0,3.0,67,0.00,,,0.00,0.000000,,2013-11-09 02:02:00,
2013-11-08 21:42:00,36.0,29.0,-100.00,SSW,209,2.0,3.0,76,0.00,,,0.00,0.000000,,2013-11-09 02:42:00,
2013-11-08 21:52:00,36.0,29.0,-100.00,SSW,209,2.0,3.0,76,0.00,,,0.00,0.000000,,2013-11-09 02:52:00,
2013-11-08 22:02:00,36.0,29.0,-100.00,SSW,209,2.0,3.0,76,0.00,,,0.00,0.000000,,2013-11-09 03:02:00,
2013-11-08 22:44:00,35.0,29.0,-100.00,SW,234,2.0,3.0,77,0.00,,,0.00,0.000000,,2013-11-09 03:44:00,
2013-11-08 22:54:00,35.0,29.0,-100.00,SW,234,2.0,3.0,77,0.00,,,0.00,0.000000,,2013-11-09 03:54:00,
2013-11-08 23:04:00,35.0,29.0,-100.00,SW,234,2.0,3.0,77,0.00,,,0.00,0.000000,,2013-11-09 04:04:00,
2013-11-08 23:43:00,35.0,29.0,-100.00,South,180,0.0,3.0,80,0.00,,,-99.99,0.000000,,2013-11-09 04:43:00,
2013-11-08 23:54:00,35.0,29.0,-100.00,South,180,0.0,3.0,80,0.00,,,-99.99,0.000000,,2013-11-09 04:54:00,